sensor_id;sensor_type;location;lat;lon;timestamp;P1;durP1;ratioP1;P2;durP2;ratioP2
12383;SDS011;6256;63.808;20.336;2022-07-10T00:00:37;3.10;;;1.03;;
12383;SDS011;6256;63.808;20.336;2022-07-10T00:03:03;0.80;;;0.80;;
12383;SDS011;6256;63.808;20.336;2022-07-10T00:05:29;1.57;;;0.93;;
12383;SDS011;6256;63.808;20.336;2022-07-10T00:07:56;1.10;;;0.87;;
12383;SDS011;6256;63.808;20.336;2022-07-10T00:10:22;1.03;;;0.90;;
12383;SDS011;6256;63.808;20.336;2022-07-10T00:12:49;1.67;;;1.00;;
12383;SDS011;6256;63.808;20.336;2022-07-10T00:15:16;1.07;;;1.00;;
12383;SDS011;6256;63.808;20.336;2022-07-10T00:17:43;1.30;;;1.20;;
12383;SDS011;6256;63.808;20.336;2022-07-10T00:20:10;1.20;;;1.10;;
12383;SDS011;6256;63.808;20.336;2022-07-10T00:22:37;1.40;;;1.20;;
12383;SDS011;6256;63.808;20.336;2022-07-10T00:25:04;2.80;;;1.07;;
12383;SDS011;6256;63.808;20.336;2022-07-10T00:27:30;2.03;;;1.20;;
12383;SDS011;6256;63.808;20.336;2022-07-10T00:29:56;1.30;;;1.20;;
12383;SDS011;6256;63.808;20.336;2022-07-10T00:32:23;1.37;;;1.27;;
12383;SDS011;6256;63.808;20.336;2022-07-10T00:34:49;3.53;;;1.40;;
12383;SDS011;6256;63.808;20.336;2022-07-10T00:37:15;1.37;;;1.27;;
12383;SDS011;6256;63.808;20.336;2022-07-10T00:39:42;1.57;;;1.20;;
12383;SDS011;6256;63.808;20.336;2022-07-10T00:44:41;1.47;;;1.37;;
12383;SDS011;6256;63.808;20.336;2022-07-10T00:47:09;1.80;;;1.20;;
12383;SDS011;6256;63.808;20.336;2022-07-10T00:49:36;2.93;;;1.30;;
12383;SDS011;6256;63.808;20.336;2022-07-10T00:52:05;2.47;;;1.27;;
12383;SDS011;6256;63.808;20.336;2022-07-10T00:54:35;1.30;;;1.17;;
12383;SDS011;6256;63.808;20.336;2022-07-10T00:57:03;1.20;;;1.10;;
12383;SDS011;6256;63.808;20.336;2022-07-10T00:59:33;1.30;;;1.20;;
12383;SDS011;6256;63.808;20.336;2022-07-10T01:02:00;1.30;;;1.20;;
12383;SDS011;6256;63.808;20.336;2022-07-10T01:04:27;2.70;;;1.30;;
12383;SDS011;6256;63.808;20.336;2022-07-10T01:06:52;2.23;;;1.30;;
12383;SDS011;6256;63.808;20.336;2022-07-10T01:09:18;1.40;;;1.30;;
12383;SDS011;6256;63.808;20.336;2022-07-10T01:11:44;1.50;;;1.40;;
12383;SDS011;6256;63.808;20.336;2022-07-10T01:14:10;6.70;;;1.80;;
12383;SDS011;6256;63.808;20.336;2022-07-10T01:16:36;6.73;;;1.93;;
12383;SDS011;6256;63.808;20.336;2022-07-10T01:19:02;1.43;;;1.27;;
12383;SDS011;6256;63.808;20.336;2022-07-10T01:21:29;2.27;;;1.37;;
12383;SDS011;6256;63.808;20.336;2022-07-10T01:23:56;1.60;;;1.50;;
12383;SDS011;6256;63.808;20.336;2022-07-10T01:26:23;2.57;;;1.90;;
12383;SDS011;6256;63.808;20.336;2022-07-10T01:28:49;1.73;;;1.63;;
12383;SDS011;6256;63.808;20.336;2022-07-10T01:31:17;1.70;;;1.40;;
12383;SDS011;6256;63.808;20.336;2022-07-10T01:33:44;3.03;;;1.63;;
12383;SDS011;6256;63.808;20.336;2022-07-10T01:36:11;1.80;;;1.50;;
12383;SDS011;6256;63.808;20.336;2022-07-10T01:38:37;2.97;;;1.67;;
12383;SDS011;6256;63.808;20.336;2022-07-10T01:41:04;4.13;;;1.60;;
12383;SDS011;6256;63.808;20.336;2022-07-10T01:43:30;1.53;;;1.43;;
12383;SDS011;6256;63.808;20.336;2022-07-10T01:45:56;1.90;;;1.70;;
12383;SDS011;6256;63.808;20.336;2022-07-10T01:48:21;2.07;;;1.53;;
12383;SDS011;6256;63.808;20.336;2022-07-10T01:50:47;2.80;;;1.93;;
12383;SDS011;6256;63.808;20.336;2022-07-10T01:53:13;2.00;;;1.87;;
12383;SDS011;6256;63.808;20.336;2022-07-10T01:55:39;3.90;;;1.73;;
12383;SDS011;6256;63.808;20.336;2022-07-10T01:58:05;2.20;;;1.83;;
12383;SDS011;6256;63.808;20.336;2022-07-10T02:00:30;2.40;;;2.03;;
12383;SDS011;6256;63.808;20.336;2022-07-10T02:02:56;1.63;;;1.53;;
12383;SDS011;6256;63.808;20.336;2022-07-10T02:05:40;2.43;;;1.90;;
12383;SDS011;6256;63.808;20.336;2022-07-10T02:08:06;2.73;;;1.87;;
12383;SDS011;6256;63.808;20.336;2022-07-10T02:10:32;1.87;;;1.77;;
12383;SDS011;6256;63.808;20.336;2022-07-10T02:12:57;3.47;;;2.13;;
12383;SDS011;6256;63.808;20.336;2022-07-10T02:15:23;2.20;;;2.00;;
12383;SDS011;6256;63.808;20.336;2022-07-10T02:17:49;3.97;;;2.03;;
12383;SDS011;6256;63.808;20.336;2022-07-10T02:20:15;2.17;;;2.03;;
12383;SDS011;6256;63.808;20.336;2022-07-10T02:22:41;2.23;;;2.07;;
12383;SDS011;6256;63.808;20.336;2022-07-10T02:25:07;2.60;;;2.40;;
12383;SDS011;6256;63.808;20.336;2022-07-10T02:27:33;2.10;;;1.90;;
12383;SDS011;6256;63.808;20.336;2022-07-10T02:29:59;2.27;;;2.07;;
12383;SDS011;6256;63.808;20.336;2022-07-10T02:32:25;3.00;;;2.10;;
12383;SDS011;6256;63.808;20.336;2022-07-10T02:34:50;4.20;;;2.20;;
12383;SDS011;6256;63.808;20.336;2022-07-10T02:37:16;3.20;;;2.13;;
12383;SDS011;6256;63.808;20.336;2022-07-10T02:39:42;2.57;;;2.20;;
12383;SDS011;6256;63.808;20.336;2022-07-10T02:42:08;1.93;;;1.83;;
12383;SDS011;6256;63.808;20.336;2022-07-10T02:44:33;2.33;;;2.13;;
12383;SDS011;6256;63.808;20.336;2022-07-10T02:46:59;2.00;;;1.90;;
12383;SDS011;6256;63.808;20.336;2022-07-10T02:49:25;3.20;;;2.37;;
12383;SDS011;6256;63.808;20.336;2022-07-10T02:51:51;1.80;;;1.70;;
12383;SDS011;6256;63.808;20.336;2022-07-10T02:54:17;2.53;;;2.00;;
12383;SDS011;6256;63.808;20.336;2022-07-10T02:56:43;2.37;;;2.10;;
12383;SDS011;6256;63.808;20.336;2022-07-10T02:59:09;2.00;;;1.80;;
12383;SDS011;6256;63.808;20.336;2022-07-10T03:01:35;2.27;;;2.07;;
12383;SDS011;6256;63.808;20.336;2022-07-10T03:04:00;3.20;;;1.90;;
12383;SDS011;6256;63.808;20.336;2022-07-10T03:06:26;4.70;;;1.80;;
12383;SDS011;6256;63.808;20.336;2022-07-10T03:08:52;3.30;;;1.93;;
12383;SDS011;6256;63.808;20.336;2022-07-10T03:11:18;2.40;;;2.20;;
12383;SDS011;6256;63.808;20.336;2022-07-10T03:13:43;1.80;;;1.70;;
12383;SDS011;6256;63.808;20.336;2022-07-10T03:16:09;2.43;;;2.23;;
12383;SDS011;6256;63.808;20.336;2022-07-10T03:18:35;3.33;;;2.00;;
12383;SDS011;6256;63.808;20.336;2022-07-10T03:21:00;2.53;;;1.90;;
12383;SDS011;6256;63.808;20.336;2022-07-10T03:23:26;2.63;;;2.00;;
12383;SDS011;6256;63.808;20.336;2022-07-10T03:25:52;2.17;;;1.93;;
12383;SDS011;6256;63.808;20.336;2022-07-10T03:28:18;3.37;;;1.80;;
12383;SDS011;6256;63.808;20.336;2022-07-10T03:30:43;1.50;;;1.40;;
12383;SDS011;6256;63.808;20.336;2022-07-10T03:33:09;2.23;;;1.80;;
12383;SDS011;6256;63.808;20.336;2022-07-10T03:35:35;2.53;;;1.70;;
12383;SDS011;6256;63.808;20.336;2022-07-10T03:38:00;1.70;;;1.60;;
12383;SDS011;6256;63.808;20.336;2022-07-10T03:40:28;1.97;;;1.67;;
12383;SDS011;6256;63.808;20.336;2022-07-10T03:42:54;1.70;;;1.60;;
12383;SDS011;6256;63.808;20.336;2022-07-10T03:45:19;1.53;;;1.43;;
12383;SDS011;6256;63.808;20.336;2022-07-10T03:47:45;1.43;;;1.27;;
12383;SDS011;6256;63.808;20.336;2022-07-10T03:50:11;1.40;;;1.30;;
12383;SDS011;6256;63.808;20.336;2022-07-10T03:52:37;1.23;;;1.13;;
12383;SDS011;6256;63.808;20.336;2022-07-10T03:55:02;1.40;;;1.30;;
12383;SDS011;6256;63.808;20.336;2022-07-10T03:57:28;2.07;;;1.40;;
12383;SDS011;6256;63.808;20.336;2022-07-10T04:00:12;1.30;;;1.20;;
12383;SDS011;6256;63.808;20.336;2022-07-10T04:02:39;1.20;;;1.10;;
12383;SDS011;6256;63.808;20.336;2022-07-10T04:05:05;1.80;;;1.30;;
12383;SDS011;6256;63.808;20.336;2022-07-10T04:07:31;1.50;;;1.40;;
12383;SDS011;6256;63.808;20.336;2022-07-10T04:09:57;1.67;;;1.50;;
12383;SDS011;6256;63.808;20.336;2022-07-10T04:12:23;1.50;;;1.40;;
12383;SDS011;6256;63.808;20.336;2022-07-10T04:14:48;2.03;;;1.30;;
12383;SDS011;6256;63.808;20.336;2022-07-10T04:17:16;1.33;;;1.23;;
12383;SDS011;6256;63.808;20.336;2022-07-10T04:19:43;1.63;;;1.00;;
12383;SDS011;6256;63.808;20.336;2022-07-10T04:22:08;1.30;;;1.17;;
12383;SDS011;6256;63.808;20.336;2022-07-10T04:24:34;1.80;;;1.20;;
12383;SDS011;6256;63.808;20.336;2022-07-10T04:27:00;1.10;;;1.10;;
12383;SDS011;6256;63.808;20.336;2022-07-10T04:29:26;1.20;;;1.10;;
12383;SDS011;6256;63.808;20.336;2022-07-10T04:31:52;2.03;;;1.23;;
12383;SDS011;6256;63.808;20.336;2022-07-10T04:34:18;2.10;;;1.17;;
12383;SDS011;6256;63.808;20.336;2022-07-10T04:36:44;1.40;;;1.30;;
12383;SDS011;6256;63.808;20.336;2022-07-10T04:39:09;1.33;;;1.23;;
12383;SDS011;6256;63.808;20.336;2022-07-10T04:41:35;1.37;;;1.27;;
12383;SDS011;6256;63.808;20.336;2022-07-10T04:44:01;2.38;;;1.17;;
12383;SDS011;6256;63.808;20.336;2022-07-10T04:46:26;1.27;;;1.13;;
12383;SDS011;6256;63.808;20.336;2022-07-10T04:48:52;1.85;;;1.33;;
12383;SDS011;6256;63.808;20.336;2022-07-10T04:51:18;1.15;;;1.10;;
12383;SDS011;6256;63.808;20.336;2022-07-10T04:53:44;1.38;;;1.13;;
12383;SDS011;6256;63.808;20.336;2022-07-10T04:56:09;1.23;;;1.17;;
12383;SDS011;6256;63.808;20.336;2022-07-10T04:58:35;1.40;;;1.30;;
12383;SDS011;6256;63.808;20.336;2022-07-10T05:01:01;1.20;;;1.10;;
12383;SDS011;6256;63.808;20.336;2022-07-10T05:03:30;1.20;;;1.10;;
12383;SDS011;6256;63.808;20.336;2022-07-10T05:05:56;1.35;;;1.25;;
12383;SDS011;6256;63.808;20.336;2022-07-10T05:08:21;1.38;;;1.27;;
12383;SDS011;6256;63.808;20.336;2022-07-10T05:10:48;1.50;;;1.40;;
12383;SDS011;6256;63.808;20.336;2022-07-10T05:13:13;1.63;;;1.45;;
12383;SDS011;6256;63.808;20.336;2022-07-10T05:15:39;2.50;;;1.30;;
12383;SDS011;6256;63.808;20.336;2022-07-10T05:18:05;2.38;;;1.40;;
12383;SDS011;6256;63.808;20.336;2022-07-10T05:20:31;1.52;;;1.40;;
12383;SDS011;6256;63.808;20.336;2022-07-10T05:22:57;1.50;;;1.40;;
12383;SDS011;6256;63.808;20.336;2022-07-10T05:25:23;1.92;;;1.70;;
12383;SDS011;6256;63.808;20.336;2022-07-10T05:27:51;2.15;;;1.40;;
12383;SDS011;6256;63.808;20.336;2022-07-10T05:30:17;1.80;;;1.67;;
12383;SDS011;6256;63.808;20.336;2022-07-10T05:32:43;1.50;;;1.40;;
12383;SDS011;6256;63.808;20.336;2022-07-10T05:35:10;1.60;;;1.50;;
12383;SDS011;6256;63.808;20.336;2022-07-10T05:37:36;1.75;;;1.65;;
12383;SDS011;6256;63.808;20.336;2022-07-10T05:40:02;2.15;;;1.90;;
12383;SDS011;6256;63.808;20.336;2022-07-10T05:42:28;1.48;;;1.38;;
12383;SDS011;6256;63.808;20.336;2022-07-10T05:44:54;1.95;;;1.85;;
12383;SDS011;6256;63.808;20.336;2022-07-10T05:47:20;3.45;;;1.58;;
12383;SDS011;6256;63.808;20.336;2022-07-10T05:49:45;2.25;;;2.05;;
12383;SDS011;6256;63.808;20.336;2022-07-10T05:52:11;2.10;;;1.90;;
12383;SDS011;6256;63.808;20.336;2022-07-10T05:54:37;2.67;;;1.70;;
12383;SDS011;6256;63.808;20.336;2022-07-10T05:57:03;1.50;;;1.40;;
12383;SDS011;6256;63.808;20.336;2022-07-10T05:59:32;2.20;;;1.80;;
12383;SDS011;6256;63.808;20.336;2022-07-10T06:01:59;1.80;;;1.70;;
12383;SDS011;6256;63.808;20.336;2022-07-10T06:04:28;1.67;;;1.50;;
12383;SDS011;6256;63.808;20.336;2022-07-10T06:06:54;1.80;;;1.70;;
12383;SDS011;6256;63.808;20.336;2022-07-10T06:09:19;2.10;;;1.95;;
12383;SDS011;6256;63.808;20.336;2022-07-10T06:11:45;2.13;;;1.88;;
12383;SDS011;6256;63.808;20.336;2022-07-10T06:14:13;2.38;;;1.90;;
12383;SDS011;6256;63.808;20.336;2022-07-10T06:16:39;1.75;;;1.65;;
12383;SDS011;6256;63.808;20.336;2022-07-10T06:19:05;2.03;;;1.60;;
12383;SDS011;6256;63.808;20.336;2022-07-10T06:21:31;1.90;;;1.80;;
12383;SDS011;6256;63.808;20.336;2022-07-10T06:23:56;3.45;;;1.95;;
12383;SDS011;6256;63.808;20.336;2022-07-10T06:26:22;2.25;;;2.05;;
12383;SDS011;6256;63.808;20.336;2022-07-10T06:28:48;1.90;;;1.70;;
12383;SDS011;6256;63.808;20.336;2022-07-10T06:31:14;2.40;;;1.95;;
12383;SDS011;6256;63.808;20.336;2022-07-10T06:33:39;1.95;;;1.85;;
12383;SDS011;6256;63.808;20.336;2022-07-10T06:36:05;1.65;;;1.52;;
12383;SDS011;6256;63.808;20.336;2022-07-10T06:38:31;2.42;;;1.85;;
12383;SDS011;6256;63.808;20.336;2022-07-10T06:40:57;1.75;;;1.65;;
12383;SDS011;6256;63.808;20.336;2022-07-10T06:43:23;2.15;;;1.98;;
12383;SDS011;6256;63.808;20.336;2022-07-10T06:45:48;2.28;;;1.63;;
12383;SDS011;6256;63.808;20.336;2022-07-10T06:48:14;2.67;;;1.70;;
12383;SDS011;6256;63.808;20.336;2022-07-10T06:50:41;2.28;;;2.08;;
12383;SDS011;6256;63.808;20.336;2022-07-10T06:53:07;1.60;;;1.50;;
12383;SDS011;6256;63.808;20.336;2022-07-10T06:55:33;1.88;;;1.70;;
12383;SDS011;6256;63.808;20.336;2022-07-10T06:57:59;2.38;;;1.75;;
12383;SDS011;6256;63.808;20.336;2022-07-10T07:00:25;1.88;;;1.67;;
12383;SDS011;6256;63.808;20.336;2022-07-10T07:02:51;2.03;;;1.75;;
12383;SDS011;6256;63.808;20.336;2022-07-10T07:05:16;2.08;;;1.70;;
12383;SDS011;6256;63.808;20.336;2022-07-10T07:07:42;1.65;;;1.55;;
12383;SDS011;6256;63.808;20.336;2022-07-10T07:10:08;1.67;;;1.58;;
12383;SDS011;6256;63.808;20.336;2022-07-10T07:12:35;1.70;;;1.60;;
12383;SDS011;6256;63.808;20.336;2022-07-10T07:15:01;1.60;;;1.50;;
12383;SDS011;6256;63.808;20.336;2022-07-10T07:17:27;1.60;;;1.50;;
12383;SDS011;6256;63.808;20.336;2022-07-10T07:20:01;2.63;;;1.60;;
12383;SDS011;6256;63.808;20.336;2022-07-10T07:22:46;1.60;;;1.50;;
12383;SDS011;6256;63.808;20.336;2022-07-10T07:25:31;2.00;;;1.80;;
12383;SDS011;6256;63.808;20.336;2022-07-10T07:27:57;1.98;;;1.88;;
12383;SDS011;6256;63.808;20.336;2022-07-10T07:30:23;2.00;;;1.85;;
12383;SDS011;6256;63.808;20.336;2022-07-10T07:32:49;2.03;;;1.75;;
12383;SDS011;6256;63.808;20.336;2022-07-10T07:35:17;1.77;;;1.67;;
12383;SDS011;6256;63.808;20.336;2022-07-10T07:37:45;1.48;;;1.38;;
12383;SDS011;6256;63.808;20.336;2022-07-10T07:40:14;2.00;;;1.70;;
12383;SDS011;6256;63.808;20.336;2022-07-10T07:42:41;1.50;;;1.40;;
12383;SDS011;6256;63.808;20.336;2022-07-10T07:45:08;1.52;;;1.40;;
12383;SDS011;6256;63.808;20.336;2022-07-10T07:47:44;1.40;;;1.30;;
12383;SDS011;6256;63.808;20.336;2022-07-10T07:50:10;1.60;;;1.38;;
12383;SDS011;6256;63.808;20.336;2022-07-10T07:52:39;1.52;;;1.40;;
12383;SDS011;6256;63.808;20.336;2022-07-10T07:55:05;1.45;;;1.30;;
12383;SDS011;6256;63.808;20.336;2022-07-10T07:57:31;1.40;;;1.30;;
12383;SDS011;6256;63.808;20.336;2022-07-10T07:59:58;2.40;;;1.48;;
12383;SDS011;6256;63.808;20.336;2022-07-10T08:02:23;1.65;;;1.55;;
12383;SDS011;6256;63.808;20.336;2022-07-10T08:04:49;1.45;;;1.35;;
12383;SDS011;6256;63.808;20.336;2022-07-10T08:07:14;1.48;;;1.38;;
12383;SDS011;6256;63.808;20.336;2022-07-10T08:09:40;1.40;;;1.30;;
12383;SDS011;6256;63.808;20.336;2022-07-10T08:12:06;1.70;;;1.60;;
12383;SDS011;6256;63.808;20.336;2022-07-10T08:14:32;1.67;;;1.50;;
12383;SDS011;6256;63.808;20.336;2022-07-10T08:16:58;1.52;;;1.42;;
12383;SDS011;6256;63.808;20.336;2022-07-10T08:19:24;1.50;;;1.40;;
12383;SDS011;6256;63.808;20.336;2022-07-10T08:21:50;1.48;;;1.38;;
12383;SDS011;6256;63.808;20.336;2022-07-10T08:24:16;1.55;;;1.40;;
12383;SDS011;6256;63.808;20.336;2022-07-10T08:26:42;1.65;;;1.50;;
12383;SDS011;6256;63.808;20.336;2022-07-10T08:29:08;1.40;;;1.30;;
12383;SDS011;6256;63.808;20.336;2022-07-10T08:31:34;1.50;;;1.40;;
12383;SDS011;6256;63.808;20.336;2022-07-10T08:34:00;1.50;;;1.40;;
12383;SDS011;6256;63.808;20.336;2022-07-10T08:36:26;1.40;;;1.20;;
12383;SDS011;6256;63.808;20.336;2022-07-10T08:38:52;1.60;;;1.50;;
12383;SDS011;6256;63.808;20.336;2022-07-10T08:41:24;1.50;;;1.40;;
12383;SDS011;6256;63.808;20.336;2022-07-10T08:43:51;2.75;;;1.35;;
12383;SDS011;6256;63.808;20.336;2022-07-10T08:46:17;1.40;;;1.30;;
12383;SDS011;6256;63.808;20.336;2022-07-10T08:48:45;1.30;;;1.20;;
12383;SDS011;6256;63.808;20.336;2022-07-10T08:51:15;0.93;;;0.93;;
12383;SDS011;6256;63.808;20.336;2022-07-10T08:54:10;1.25;;;1.17;;
12383;SDS011;6256;63.808;20.336;2022-07-10T08:56:40;1.38;;;1.27;;
12383;SDS011;6256;63.808;20.336;2022-07-10T08:59:06;1.20;;;1.10;;
12383;SDS011;6256;63.808;20.336;2022-07-10T09:01:33;1.10;;;1.00;;
12383;SDS011;6256;63.808;20.336;2022-07-10T09:03:59;1.17;;;0.95;;
12383;SDS011;6256;63.808;20.336;2022-07-10T09:06:25;1.00;;;1.00;;
12383;SDS011;6256;63.808;20.336;2022-07-10T09:09:00;3.00;;;1.35;;
12383;SDS011;6256;63.808;20.336;2022-07-10T09:11:31;0.90;;;0.90;;
12383;SDS011;6256;63.808;20.336;2022-07-10T09:13:58;0.85;;;0.85;;
12383;SDS011;6256;63.808;20.336;2022-07-10T09:18:51;1.73;;;0.95;;
12383;SDS011;6256;63.808;20.336;2022-07-10T09:21:17;1.70;;;1.00;;
12383;SDS011;6256;63.808;20.336;2022-07-10T09:23:43;1.08;;;1.00;;
12383;SDS011;6256;63.808;20.336;2022-07-10T09:26:09;1.65;;;0.95;;
12383;SDS011;6256;63.808;20.336;2022-07-10T09:28:34;1.17;;;1.08;;
12383;SDS011;6256;63.808;20.336;2022-07-10T09:31:00;1.60;;;1.10;;
12383;SDS011;6256;63.808;20.336;2022-07-10T09:33:29;1.88;;;1.00;;
12383;SDS011;6256;63.808;20.336;2022-07-10T09:43:56;0.80;;;0.80;;
12383;SDS011;6256;63.808;20.336;2022-07-10T09:46:27;2.33;;;0.70;;
12383;SDS011;6256;63.808;20.336;2022-07-10T09:49:10;0.82;;;0.70;;
12383;SDS011;6256;63.808;20.336;2022-07-10T09:51:38;0.70;;;0.70;;
12383;SDS011;6256;63.808;20.336;2022-07-10T09:54:05;0.60;;;0.60;;
12383;SDS011;6256;63.808;20.336;2022-07-10T09:56:53;0.82;;;0.82;;
12383;SDS011;6256;63.808;20.336;2022-07-10T09:59:19;1.05;;;0.90;;
12383;SDS011;6256;63.808;20.336;2022-07-10T10:04:16;0.57;;;0.57;;
12383;SDS011;6256;63.808;20.336;2022-07-10T10:06:45;1.13;;;0.70;;
12383;SDS011;6256;63.808;20.336;2022-07-10T10:09:21;0.70;;;0.70;;
12383;SDS011;6256;63.808;20.336;2022-07-10T10:12:00;0.55;;;0.55;;
12383;SDS011;6256;63.808;20.336;2022-07-10T10:14:32;0.50;;;0.50;;
12383;SDS011;6256;63.808;20.336;2022-07-10T10:16:59;0.70;;;0.70;;
12383;SDS011;6256;63.808;20.336;2022-07-10T10:19:26;0.57;;;0.57;;
12383;SDS011;6256;63.808;20.336;2022-07-10T10:22:12;0.65;;;0.65;;
12383;SDS011;6256;63.808;20.336;2022-07-10T10:24:39;0.55;;;0.55;;
12383;SDS011;6256;63.808;20.336;2022-07-10T10:27:06;0.60;;;0.60;;
12383;SDS011;6256;63.808;20.336;2022-07-10T10:29:35;0.68;;;0.68;;
12383;SDS011;6256;63.808;20.336;2022-07-10T10:32:02;0.45;;;0.45;;
12383;SDS011;6256;63.808;20.336;2022-07-10T10:34:37;0.50;;;0.50;;
12383;SDS011;6256;63.808;20.336;2022-07-10T10:37:05;0.60;;;0.60;;
12383;SDS011;6256;63.808;20.336;2022-07-10T10:39:32;0.70;;;0.70;;
12383;SDS011;6256;63.808;20.336;2022-07-10T10:53:26;0.70;;;0.60;;
12383;SDS011;6256;63.808;20.336;2022-07-10T10:58:35;1.85;;;0.70;;
12383;SDS011;6256;63.808;20.336;2022-07-10T11:01:06;0.52;;;0.52;;
12383;SDS011;6256;63.808;20.336;2022-07-10T11:06:42;0.85;;;0.85;;
12383;SDS011;6256;63.808;20.336;2022-07-10T11:11:59;0.47;;;0.47;;
12383;SDS011;6256;63.808;20.336;2022-07-10T11:14:26;0.30;;;0.30;;
12383;SDS011;6256;63.808;20.336;2022-07-10T11:16:56;0.98;;;0.50;;
12383;SDS011;6256;63.808;20.336;2022-07-10T11:19:26;1.15;;;0.50;;
12383;SDS011;6256;63.808;20.336;2022-07-10T11:24:42;0.57;;;0.57;;
12383;SDS011;6256;63.808;20.336;2022-07-10T11:30:00;0.68;;;0.30;;
12383;SDS011;6256;63.808;20.336;2022-07-10T11:32:26;0.43;;;0.32;;
12383;SDS011;6256;63.808;20.336;2022-07-10T11:34:53;0.30;;;0.30;;
12383;SDS011;6256;63.808;20.336;2022-07-10T11:37:19;0.38;;;0.38;;
12383;SDS011;6256;63.808;20.336;2022-07-10T11:39:45;0.50;;;0.50;;
12383;SDS011;6256;63.808;20.336;2022-07-10T11:42:11;0.50;;;0.35;;
12383;SDS011;6256;63.808;20.336;2022-07-10T11:44:36;0.63;;;0.40;;
12383;SDS011;6256;63.808;20.336;2022-07-10T11:47:03;1.13;;;0.45;;
12383;SDS011;6256;63.808;20.336;2022-07-10T11:49:29;0.30;;;0.30;;
12383;SDS011;6256;63.808;20.336;2022-07-10T11:52:00;0.30;;;0.30;;
12383;SDS011;6256;63.808;20.336;2022-07-10T11:54:28;0.30;;;0.30;;
12383;SDS011;6256;63.808;20.336;2022-07-10T11:56:54;0.30;;;0.30;;
12383;SDS011;6256;63.808;20.336;2022-07-10T11:59:26;0.63;;;0.30;;
12383;SDS011;6256;63.808;20.336;2022-07-10T12:01:53;0.30;;;0.30;;
12383;SDS011;6256;63.808;20.336;2022-07-10T12:04:23;0.30;;;0.30;;
12383;SDS011;6256;63.808;20.336;2022-07-10T12:06:51;0.65;;;0.65;;
12383;SDS011;6256;63.808;20.336;2022-07-10T12:09:18;0.47;;;0.47;;
12383;SDS011;6256;63.808;20.336;2022-07-10T12:12:02;0.28;;;0.28;;
12383;SDS011;6256;63.808;20.336;2022-07-10T12:14:29;0.30;;;0.30;;
12383;SDS011;6256;63.808;20.336;2022-07-10T12:16:56;0.40;;;0.38;;
12383;SDS011;6256;63.808;20.336;2022-07-10T12:19:23;0.73;;;0.47;;
12383;SDS011;6256;63.808;20.336;2022-07-10T12:21:49;0.80;;;0.65;;
12383;SDS011;6256;63.808;20.336;2022-07-10T12:24:17;0.40;;;0.40;;
12383;SDS011;6256;63.808;20.336;2022-07-10T12:26:47;0.50;;;0.50;;
12383;SDS011;6256;63.808;20.336;2022-07-10T12:29:34;0.50;;;0.50;;
12383;SDS011;6256;63.808;20.336;2022-07-10T12:32:00;1.55;;;0.47;;
12383;SDS011;6256;63.808;20.336;2022-07-10T12:34:36;0.82;;;0.40;;
12383;SDS011;6256;63.808;20.336;2022-07-10T12:37:08;0.30;;;0.30;;
12383;SDS011;6256;63.808;20.336;2022-07-10T12:39:46;0.32;;;0.32;;
12383;SDS011;6256;63.808;20.336;2022-07-10T12:42:27;0.32;;;0.32;;
12383;SDS011;6256;63.808;20.336;2022-07-10T12:45:11;0.35;;;0.35;;
12383;SDS011;6256;63.808;20.336;2022-07-10T12:47:44;0.57;;;0.57;;
12383;SDS011;6256;63.808;20.336;2022-07-10T12:50:12;0.60;;;0.60;;
12383;SDS011;6256;63.808;20.336;2022-07-10T12:52:38;0.77;;;0.38;;
12383;SDS011;6256;63.808;20.336;2022-07-10T12:55:05;0.60;;;0.55;;
12383;SDS011;6256;63.808;20.336;2022-07-10T13:00:22;0.40;;;0.40;;
12383;SDS011;6256;63.808;20.336;2022-07-10T13:02:59;0.50;;;0.50;;
12383;SDS011;6256;63.808;20.336;2022-07-10T13:05:36;0.40;;;0.40;;
12383;SDS011;6256;63.808;20.336;2022-07-10T13:10:44;4.35;;;1.40;;
12383;SDS011;6256;63.808;20.336;2022-07-10T13:13:12;3.55;;;1.30;;
12383;SDS011;6256;63.808;20.336;2022-07-10T13:15:39;1.25;;;0.60;;
12383;SDS011;6256;63.808;20.336;2022-07-10T13:18:16;2.08;;;0.70;;
12383;SDS011;6256;63.808;20.336;2022-07-10T13:20:45;0.38;;;0.38;;
12383;SDS011;6256;63.808;20.336;2022-07-10T13:23:12;0.45;;;0.43;;
12383;SDS011;6256;63.808;20.336;2022-07-10T13:25:38;0.40;;;0.40;;
12383;SDS011;6256;63.808;20.336;2022-07-10T13:28:07;0.40;;;0.40;;
12383;SDS011;6256;63.808;20.336;2022-07-10T13:30:36;0.50;;;0.40;;
12383;SDS011;6256;63.808;20.336;2022-07-10T13:33:02;0.60;;;0.50;;
12383;SDS011;6256;63.808;20.336;2022-07-10T13:35:28;0.50;;;0.50;;
12383;SDS011;6256;63.808;20.336;2022-07-10T13:37:58;1.65;;;0.40;;
12383;SDS011;6256;63.808;20.336;2022-07-10T13:40:29;0.43;;;0.43;;
12383;SDS011;6256;63.808;20.336;2022-07-10T13:42:56;0.43;;;0.40;;
12383;SDS011;6256;63.808;20.336;2022-07-10T13:45:22;0.35;;;0.30;;
12383;SDS011;6256;63.808;20.336;2022-07-10T13:47:55;0.60;;;0.35;;
12383;SDS011;6256;63.808;20.336;2022-07-10T13:50:21;1.45;;;0.80;;
12383;SDS011;6256;63.808;20.336;2022-07-10T13:52:47;0.60;;;0.60;;
12383;SDS011;6256;63.808;20.336;2022-07-10T13:55:13;0.52;;;0.50;;
12383;SDS011;6256;63.808;20.336;2022-07-10T13:57:39;0.60;;;0.60;;
12383;SDS011;6256;63.808;20.336;2022-07-10T14:00:05;1.52;;;0.70;;
12383;SDS011;6256;63.808;20.336;2022-07-10T14:02:32;4.07;;;1.63;;
12383;SDS011;6256;63.808;20.336;2022-07-10T14:04:57;0.80;;;0.65;;
12383;SDS011;6256;63.808;20.336;2022-07-10T14:07:23;3.25;;;1.10;;
12383;SDS011;6256;63.808;20.336;2022-07-10T14:09:49;0.32;;;0.32;;
12383;SDS011;6256;63.808;20.336;2022-07-10T14:12:15;0.95;;;0.85;;
12383;SDS011;6256;63.808;20.336;2022-07-10T14:14:41;0.50;;;0.40;;
12383;SDS011;6256;63.808;20.336;2022-07-10T14:17:07;0.43;;;0.43;;
12383;SDS011;6256;63.808;20.336;2022-07-10T14:19:33;0.50;;;0.50;;
12383;SDS011;6256;63.808;20.336;2022-07-10T14:21:59;0.45;;;0.45;;
12383;SDS011;6256;63.808;20.336;2022-07-10T14:24:25;0.50;;;0.50;;
12383;SDS011;6256;63.808;20.336;2022-07-10T14:26:51;0.30;;;0.30;;
12383;SDS011;6256;63.808;20.336;2022-07-10T14:29:18;0.43;;;0.43;;
12383;SDS011;6256;63.808;20.336;2022-07-10T14:31:44;0.98;;;0.70;;
12383;SDS011;6256;63.808;20.336;2022-07-10T14:34:13;0.50;;;0.50;;
12383;SDS011;6256;63.808;20.336;2022-07-10T14:36:41;0.60;;;0.60;;
12383;SDS011;6256;63.808;20.336;2022-07-10T14:39:07;0.40;;;0.40;;
12383;SDS011;6256;63.808;20.336;2022-07-10T14:41:33;0.50;;;0.50;;
12383;SDS011;6256;63.808;20.336;2022-07-10T14:43:59;0.60;;;0.60;;
12383;SDS011;6256;63.808;20.336;2022-07-10T14:46:24;0.57;;;0.57;;
12383;SDS011;6256;63.808;20.336;2022-07-10T14:48:50;0.50;;;0.50;;
12383;SDS011;6256;63.808;20.336;2022-07-10T14:51:17;0.70;;;0.70;;
12383;SDS011;6256;63.808;20.336;2022-07-10T14:53:43;0.50;;;0.50;;
12383;SDS011;6256;63.808;20.336;2022-07-10T14:56:10;0.50;;;0.50;;
12383;SDS011;6256;63.808;20.336;2022-07-10T14:58:37;1.02;;;0.70;;
12383;SDS011;6256;63.808;20.336;2022-07-10T15:01:02;0.80;;;0.70;;
12383;SDS011;6256;63.808;20.336;2022-07-10T15:03:28;1.27;;;1.10;;
12383;SDS011;6256;63.808;20.336;2022-07-10T15:05:55;101.15;;;94.90;;
12383;SDS011;6256;63.808;20.336;2022-07-10T15:08:25;125.03;;;115.30;;
12383;SDS011;6256;63.808;20.336;2022-07-10T15:10:51;207.98;;;187.90;;
12383;SDS011;6256;63.808;20.336;2022-07-10T15:13:17;80.10;;;75.65;;
12383;SDS011;6256;63.808;20.336;2022-07-10T15:15:43;5.53;;;5.22;;
12383;SDS011;6256;63.808;20.336;2022-07-10T15:18:09;1.70;;;1.60;;
12383;SDS011;6256;63.808;20.336;2022-07-10T15:20:35;3.88;;;3.20;;
12383;SDS011;6256;63.808;20.336;2022-07-10T15:23:02;2.25;;;2.05;;
12383;SDS011;6256;63.808;20.336;2022-07-10T15:25:28;3.78;;;2.33;;
12383;SDS011;6256;63.808;20.336;2022-07-10T15:27:54;1.63;;;1.52;;
12383;SDS011;6256;63.808;20.336;2022-07-10T15:30:20;1.67;;;1.25;;
12383;SDS011;6256;63.808;20.336;2022-07-10T15:32:46;0.80;;;0.80;;
12383;SDS011;6256;63.808;20.336;2022-07-10T15:35:12;1.40;;;1.10;;